Terminal Aerodrome Forecast
Issued by NWS Atlanta, GA

Home | Current Version | Previous Version | Text Only | Print | Product List | Glossary On
Versions: 1 2 3 4 5 6 7 8 9 10 11 12 13 14 15 16 17 18 19 20 21 22 23 24 25 26 27 28 29 30 31 32 33 34 35 36 37 38
000
FTUS42 KFFC 240944 AAB
TAFATL
TAF AMD
KATL 240944Z 2410/2512 33008KT P6SM FEW200
     FM241100 01003KT P6SM SCT180
     FM241400 08006KT P6SM FEW050 SCT180
     FM241900 12005KT P6SM SCT050 BKN150
     FM250100 16003KT P6SM BKN050 OVC120
     FM250900 16004KT P6SM OVC035=

USA.gov is the U.S. government's official web portal to all federal, state and local government web resources and services.